Time;durP1;ratioP1;P1;durP2;ratioP2;P2;SDS_P1;SDS_P2;PMS_P1;PMS_P2;Temp;Humidity;BMP_temperature;BMP_pressure;BME280_temperature;BME280_humidity;BME280_pressure;Samples;Min_cycle;Max_cycle;Signal;HPM_P1;HPM_P2
2022/11/23 00:00:46;;;;;;;0.50;0.10;;;8.60;99.90;;;;;;6066599;23;20455;-75
2022/11/23 00:03:15;;;;;;;0.50;0.10;;;8.60;99.90;;;;;;6065254;23;20483;-75
2022/11/23 00:05:44;;;;;;;0.50;0.10;;;8.60;99.90;;;;;;6065318;23;20436;-75
2022/11/23 00:08:12;;;;;;;0.53;0.17;;;8.60;99.90;;;;;;6064895;23;20408;-75
2022/11/23 00:10:39;;;;;;;1.27;1.17;;;8.60;99.90;;;;;;6067070;23;20805;-75
2022/11/23 00:13:07;;;;;;;0.50;0.10;;;8.50;99.90;;;;;;6068094;23;20418;-75
2022/11/23 00:15:35;;;;;;;0.80;0.80;;;8.50;99.90;;;;;;6068345;23;20439;-74
2022/11/23 00:18:03;;;;;;;0.60;0.30;;;8.50;99.90;;;;;;6068604;23;20414;-75
2022/11/23 00:20:31;;;;;;;0.50;0.10;;;8.40;99.90;;;;;;6068628;23;20411;-75
2022/11/23 00:23:00;;;;;;;0.50;0.10;;;8.40;99.90;;;;;;6068696;23;20459;-74
2022/11/23 00:25:28;;;;;;;0.60;0.30;;;8.40;99.90;;;;;;6068816;23;20427;-75
2022/11/23 00:27:56;;;;;;;2.57;0.27;;;8.40;99.90;;;;;;6068280;23;20444;-74
2022/11/23 00:30:24;;;;;;;0.50;0.10;;;8.40;99.90;;;;;;6067760;23;20445;-74
2022/11/23 00:32:51;;;;;;;0.50;0.20;;;8.50;99.90;;;;;;6067923;23;20403;-74
2022/11/23 00:35:19;;;;;;;0.50;0.10;;;8.50;99.90;;;;;;6068302;23;20435;-75
2022/11/23 00:37:47;;;;;;;0.50;0.30;;;8.50;99.90;;;;;;6067865;23;20404;-74
2022/11/23 00:40:16;;;;;;;0.73;0.43;;;8.50;99.90;;;;;;6067985;23;20404;-74
2022/11/23 00:42:44;;;;;;;0.50;0.10;;;8.50;99.90;;;;;;6067899;23;20415;-75
2022/11/23 00:45:12;;;;;;;0.50;0.10;;;8.50;99.90;;;;;;6067057;23;20811;-75
2022/11/23 00:47:40;;;;;;;0.50;0.10;;;8.50;99.90;;;;;;6067862;23;20771;-75
2022/11/23 00:50:08;;;;;;;0.70;0.67;;;8.50;99.90;;;;;;6068290;23;20436;-75
2022/11/23 00:52:36;;;;;;;0.50;0.10;;;8.60;99.90;;;;;;6067642;23;20885;-76
2022/11/23 00:55:04;;;;;;;0.50;0.10;;;8.50;99.90;;;;;;6068029;23;20487;-76
2022/11/23 00:57:34;;;;;;;0.50;0.10;;;8.60;99.90;;;;;;6067739;23;20404;-74
2022/11/23 01:00:02;;;;;;;1.00;0.50;;;8.60;99.90;;;;;;6068015;23;20412;-75
2022/11/23 05:01:19;;;;;;;0.50;0.10;;;8.80;99.90;;;;;;6019940;23;1314684;-79
2022/11/23 05:03:47;;;;;;;0.50;0.10;;;8.80;99.90;;;;;;6109094;23;20167;-80
2022/11/23 05:06:16;;;;;;;0.50;0.10;;;8.80;99.90;;;;;;6111001;23;20418;-77
2022/11/23 05:08:44;;;;;;;0.50;0.10;;;8.80;99.90;;;;;;6109316;23;20435;-81
2022/11/23 05:11:11;;;;;;;0.50;0.10;;;8.80;99.90;;;;;;6108231;23;20433;-80
2022/11/23 05:13:39;;;;;;;0.50;0.10;;;8.80;99.90;;;;;;6109223;23;20418;-80
2022/11/23 05:16:07;;;;;;;0.50;0.10;;;8.80;99.90;;;;;;6103331;23;20418;-77
2022/11/23 05:18:37;;;;;;;0.50;0.10;;;8.90;99.90;;;;;;6099957;23;20410;-79
2022/11/23 05:21:05;;;;;;;0.50;0.10;;;8.80;99.90;;;;;;6098512;23;20446;-79
2022/11/23 05:23:32;;;;;;;0.50;0.10;;;8.80;99.90;;;;;;6099825;23;20442;-78
2022/11/23 05:26:00;;;;;;;0.50;0.10;;;8.80;99.90;;;;;;6100458;23;20746;-79
2022/11/23 05:28:28;;;;;;;0.50;0.10;;;8.90;99.90;;;;;;6100038;23;20399;-79
2022/11/23 05:31:07;;;;;;;0.50;0.10;;;8.80;99.40;;;;;;6100266;23;20500;-79
2022/11/23 05:33:37;;;;;;;0.50;0.20;;;8.80;99.90;;;;;;6099364;23;20405;-79
2022/11/23 05:36:05;;;;;;;0.50;0.10;;;8.70;99.90;;;;;;6099822;23;20402;-80
2022/11/23 05:38:33;;;;;;;0.50;0.10;;;8.70;99.90;;;;;;6099186;23;20654;-77
2022/11/23 05:41:01;;;;;;;0.50;0.10;;;8.70;99.90;;;;;;6098602;23;21137;-80
2022/11/23 05:43:29;;;;;;;0.50;0.10;;;8.70;99.90;;;;;;6098137;23;20787;-77
2022/11/23 05:45:59;;;;;;;0.50;0.10;;;8.70;99.90;;;;;;6099817;23;20399;-79
2022/11/23 05:48:27;;;;;;;0.50;0.10;;;8.80;99.90;;;;;;6116130;23;20425;-77
2022/11/23 05:50:56;;;;;;;10.90;10.00;;;8.80;99.90;;;;;;6116602;23;20427;-76
2022/11/23 05:53:32;;;;;;;0.50;0.10;;;8.80;99.90;;;;;;6100705;23;20419;-79
2022/11/23 05:56:00;;;;;;;0.50;0.17;;;8.90;99.90;;;;;;6100972;23;20480;-78
2022/11/23 05:58:32;;;;;;;0.50;0.10;;;8.80;99.90;;;;;;6101501;23;20441;-76
2022/11/23 06:01:01;;;;;;;0.50;0.10;;;8.80;99.90;;;;;;6106091;23;20980;-78
2022/11/23 06:03:29;;;;;;;0.50;0.10;;;8.80;99.90;;;;;;6131104;23;20413;-79
2022/11/23 06:05:58;;;;;;;0.50;0.10;;;8.80;99.90;;;;;;6131615;23;20493;-79
2022/11/23 06:08:26;;;;;;;0.50;0.10;;;8.90;99.90;;;;;;6132077;23;20402;-79
2022/11/23 06:10:54;;;;;;;0.50;0.10;;;8.90;99.90;;;;;;6132150;23;20430;-78
2022/11/23 06:13:22;;;;;;;0.50;0.10;;;8.90;99.90;;;;;;6131245;23;20413;-79
2022/11/23 06:15:50;;;;;;;0.50;0.10;;;8.90;99.90;;;;;;6129960;23;20488;-79
2022/11/23 06:18:18;;;;;;;0.50;0.10;;;8.90;99.90;;;;;;6130411;23;20402;-79
2022/11/23 06:20:46;;;;;;;0.50;0.10;;;8.80;99.90;;;;;;6130088;23;20763;-78
2022/11/23 06:23:15;;;;;;;0.50;0.10;;;8.80;99.90;;;;;;6130053;23;20496;-78
2022/11/23 06:25:43;;;;;;;0.50;0.10;;;8.90;99.90;;;;;;6131222;23;20418;-78
2022/11/23 06:28:11;;;;;;;0.60;0.20;;;8.90;99.90;;;;;;6131724;23;20398;-79
2022/11/23 06:30:39;;;;;;;0.50;0.10;;;8.90;99.90;;;;;;6130866;23;20424;-79
2022/11/23 06:33:07;;;;;;;0.50;0.10;;;8.80;99.90;;;;;;6131411;23;20421;-79
2022/11/23 06:35:35;;;;;;;0.50;0.10;;;8.90;99.90;;;;;;6131459;23;20418;-81
2022/11/23 06:38:03;;;;;;;0.50;0.10;;;8.90;99.90;;;;;;6132591;23;21126;-78
2022/11/23 06:40:32;;;;;;;0.50;0.10;;;8.90;99.90;;;;;;6131441;23;20425;-79
2022/11/23 06:43:00;;;;;;;0.50;0.10;;;8.90;99.90;;;;;;6130962;23;20449;-80
2022/11/23 06:45:29;;;;;;;0.50;0.10;;;8.90;99.90;;;;;;6133197;23;20418;-79
2022/11/23 06:47:57;;;;;;;0.50;0.10;;;8.90;99.90;;;;;;6140727;23;20867;-80
2022/11/23 06:50:24;;;;;;;0.50;0.10;;;8.90;99.90;;;;;;6138919;23;20469;-78
2022/11/23 06:52:56;;;;;;;0.50;0.10;;;8.80;99.90;;;;;;6131966;23;20481;-78
2022/11/23 06:55:24;;;;;;;0.50;0.10;;;9.20;99.90;;;;;;6142152;23;20497;-80
2022/11/23 06:57:54;;;;;;;0.50;0.10;;;8.80;99.90;;;;;;6152617;23;20398;-81
2022/11/23 07:00:22;;;;;;;0.50;0.10;;;8.80;99.90;;;;;;6147439;23;20508;-78
2022/11/23 07:02:52;;;;;;;0.50;0.10;;;8.80;99.90;;;;;;6132926;23;20457;-78
2022/11/23 07:05:20;;;;;;;1.60;1.50;;;;;;;;;;6132990;23;20414;-79
2022/11/23 07:07:50;;;;;;;0.50;0.10;;;8.80;99.90;;;;;;6130262;23;20796;-79
2022/11/23 07:10:18;;;;;;;0.50;0.10;;;8.80;99.90;;;;;;6131842;23;20382;-78
2022/11/23 07:12:46;;;;;;;0.50;0.10;;;8.80;99.90;;;;;;6132408;23;21130;-79
2022/11/23 07:15:15;;;;;;;0.50;0.10;;;8.90;99.90;;;;;;6133822;23;20520;-80
2022/11/23 07:17:44;;;;;;;0.50;0.10;;;8.90;99.90;;;;;;6130627;23;20425;-80
2022/11/23 07:20:13;;;;;;;1.90;1.80;;;8.90;99.90;;;;;;6130608;23;20508;-79
2022/11/23 07:22:42;;;;;;;1.10;0.87;;;9.10;99.90;;;;;;6134754;23;20524;-79
2022/11/23 07:25:15;;;;;;;0.50;0.10;;;8.90;99.90;;;;;;6135694;23;20496;-79
2022/11/23 07:27:43;;;;;;;0.60;0.30;;;8.90;99.90;;;;;;6131806;23;20428;-80
2022/11/23 07:30:12;;;;;;;0.50;0.10;;;8.90;99.90;;;;;;6137761;23;20417;-80
2022/11/23 07:32:41;;;;;;;0.50;0.13;;;8.80;99.90;;;;;;6134448;23;20434;-79
2022/11/23 07:35:10;;;;;;;0.50;0.10;;;8.80;99.90;;;;;;6134620;23;20414;-80
2022/11/23 07:37:38;;;;;;;0.50;0.10;;;8.70;99.90;;;;;;6134871;23;20428;-80
2022/11/23 07:40:07;;;;;;;0.50;0.10;;;8.80;99.90;;;;;;6135981;23;20409;-79
2022/11/23 07:42:37;;;;;;;0.50;0.10;;;8.80;99.90;;;;;;6135562;23;20437;-79
2022/11/23 07:45:12;;;;;;;0.50;0.10;;;8.80;99.90;;;;;;6138046;23;20433;-79
2022/11/23 07:47:42;;;;;;;0.50;0.10;;;8.90;99.90;;;;;;6133837;23;20437;-79
2022/11/23 07:50:12;;;;;;;0.50;0.10;;;8.90;99.90;;;;;;6134942;23;20406;-80
2022/11/23 07:52:40;;;;;;;0.50;0.10;;;8.90;99.90;;;;;;6134812;23;20484;-79
2022/11/23 07:55:09;;;;;;;0.50;0.10;;;8.90;99.90;;;;;;6132009;23;20493;-80
2022/11/23 07:57:37;;;;;;;0.50;0.10;;;9.00;99.90;;;;;;6131178;23;20402;-80
2022/11/23 08:00:06;;;;;;;0.50;0.10;;;9.00;99.90;;;;;;6129839;23;20418;-75
2022/11/23 08:02:34;;;;;;;0.50;0.10;;;9.00;99.90;;;;;;6128705;23;20529;-79
2022/11/23 08:05:04;;;;;;;0.50;0.10;;;9.00;99.90;;;;;;6129961;23;20886;-79
2022/11/23 08:07:38;;;;;;;0.50;0.10;;;9.00;99.90;;;;;;6129388;23;20464;-78
2022/11/23 08:10:06;;;;;;;0.50;0.10;;;9.00;99.90;;;;;;6129178;23;20922;-79
2022/11/23 08:12:34;;;;;;;0.50;0.10;;;9.00;99.90;;;;;;6129825;23;20444;-79
2022/11/23 08:15:02;;;;;;;0.50;0.10;;;9.10;99.90;;;;;;6128280;23;20424;-78
2022/11/23 08:17:30;;;;;;;0.50;0.20;;;9.10;99.90;;;;;;6131298;23;20398;-79
2022/11/23 08:19:58;;;;;;;0.50;0.10;;;9.10;99.90;;;;;;6131829;23;20408;-78
2022/11/23 08:22:27;;;;;;;0.50;0.10;;;9.10;99.90;;;;;;6129825;23;20429;-79
2022/11/23 08:24:55;;;;;;;0.50;0.10;;;9.10;99.90;;;;;;6132546;23;20398;-79
2022/11/23 08:27:23;;;;;;;0.50;0.10;;;9.10;96.30;;;;;;6130515;23;20398;-80
2022/11/23 08:29:51;;;;;;;0.50;0.10;;;9.10;98.70;;;;;;6130235;23;20424;-79
2022/11/23 08:32:19;;;;;;;0.50;0.10;;;9.10;93.90;;;;;;6129259;23;20445;-80
2022/11/23 08:34:46;;;;;;;0.50;0.10;;;9.10;95.20;;;;;;6129177;23;20910;-78
2022/11/23 08:37:15;;;;;;;0.50;0.10;;;9.00;95.50;;;;;;6129008;23;20498;-78
2022/11/23 08:39:44;;;;;;;0.50;0.10;;;9.00;95.80;;;;;;6129678;23;20425;-78
2022/11/23 08:42:13;;;;;;;0.50;0.10;;;;;;;;;;6130345;23;20438;-79
2022/11/23 08:44:41;;;;;;;0.50;0.10;;;9.00;96.20;;;;;;6132574;23;20453;-79
2022/11/23 08:47:09;;;;;;;0.50;0.10;;;9.60;98.60;;;;;;6137075;23;20437;-78
2022/11/23 08:49:37;;;;;;;0.50;0.10;;;9.10;97.90;;;;;;6147816;23;20397;-80
2022/11/23 08:52:05;;;;;;;0.50;0.10;;;9.20;94.80;;;;;;6146507;23;20469;-79
2022/11/23 08:54:33;;;;;;;0.50;0.10;;;9.20;94.20;;;;;;6142977;23;20473;-80
2022/11/23 08:57:03;;;;;;;0.50;0.10;;;9.30;95.60;;;;;;6143143;23;20417;-78
2022/11/23 08:59:31;;;;;;;0.50;0.10;;;9.40;93.40;;;;;;6142794;23;20429;-81
2022/11/23 09:01:59;;;;;;;0.50;0.10;;;9.50;87.10;;;;;;6140391;23;20501;-80
2022/11/23 09:04:29;;;;;;;0.70;0.23;;;9.50;90.30;;;;;;6144341;23;20445;-79
2022/11/23 09:06:57;;;;;;;0.50;0.10;;;9.60;76.50;;;;;;6146827;23;20394;-79
2022/11/23 09:09:25;;;;;;;0.50;0.10;;;9.60;67.70;;;;;;6147581;23;20420;-78
2022/11/23 09:11:53;;;;;;;0.50;0.10;;;9.70;56.90;;;;;;6147537;23;20445;-79
2022/11/23 09:14:23;;;;;;;0.50;0.10;;;9.70;59.30;;;;;;6147100;23;20425;-79
2022/11/23 09:16:51;;;;;;;0.50;0.10;;;9.80;57.90;;;;;;6144643;23;20421;-79
2022/11/23 09:19:20;;;;;;;0.53;0.20;;;9.80;37.00;;;;;;6143945;23;20444;-79
2022/11/23 09:21:48;;;;;;;0.50;0.10;;;9.90;36.20;;;;;;6145397;23;20449;-78
2022/11/23 09:24:16;;;;;;;0.50;0.10;;;9.80;37.80;;;;;;6146077;23;20435;-79
2022/11/23 09:26:44;;;;;;;0.50;0.20;;;9.80;28.40;;;;;;6149145;23;20414;-80
2022/11/23 09:29:12;;;;;;;0.50;0.10;;;9.80;31.00;;;;;;6146380;23;20424;-79
2022/11/23 09:31:41;;;;;;;0.50;0.10;;;9.90;23.70;;;;;;6145743;23;20429;-77
2022/11/23 09:34:11;;;;;;;0.50;0.10;;;9.90;28.10;;;;;;6151741;23;20388;-77
2022/11/23 09:36:39;;;;;;;3.90;0.70;;;10.00;26.60;;;;;;6153286;23;20398;-79
2022/11/23 09:39:08;;;;;;;0.50;0.20;;;10.00;20.40;;;;;;6153425;23;20402;-80
2022/11/23 09:41:59;;;;;;;0.50;0.20;;;9.80;13.50;;;;;;6151772;23;20422;-79
2022/11/23 09:44:35;;;;;;;0.50;0.20;;;9.80;18.80;;;;;;6150324;23;20516;-78
2022/11/23 09:47:21;;;;;;;0.50;0.10;;;9.70;11.70;;;;;;6151481;23;20390;-78
2022/11/23 09:49:56;;;;;;;0.50;0.30;;;9.70;20.40;;;;;;6149385;23;20424;-80
2022/11/23 09:52:25;;;;;;;0.50;0.20;;;9.80;15.00;;;;;;6149170;23;20409;-78
2022/11/23 09:54:57;;;;;;;0.50;0.20;;;9.80;26.70;;;;;;6147181;23;20440;-79
2022/11/23 09:57:27;;;;;;;0.50;0.10;;;9.90;15.30;;;;;;6145382;23;20412;-80
2022/11/23 10:00:00;;;;;;;0.60;0.30;;;10.00;15.90;;;;;;6143985;23;20433;-81
2022/11/23 10:02:32;;;;;;;0.50;0.10;;;10.10;5.60;;;;;;6144297;23;20461;-79
2022/11/23 10:05:01;;;;;;;0.50;0.10;;;10.10;6.20;;;;;;6140805;23;20445;-80
2022/11/23 10:07:42;;;;;;;0.67;0.43;;;10.10;3.30;;;;;;6142419;23;20476;-79
2022/11/23 10:10:28;;;;;;;0.50;0.10;;;10.10;1.00;;;;;;6139501;23;20449;-80
2022/11/23 10:13:08;;;;;;;0.50;0.10;;;10.00;1.00;;;;;;6136438;23;20378;-79
2022/11/23 10:15:45;;;;;;;0.50;0.10;;;10.10;1.00;;;;;;6138486;23;20406;-80
2022/11/23 10:18:27;;;;;;;0.50;0.10;;;10.20;1.00;;;;;;6137629;23;20382;-80
2022/11/23 10:21:02;;;;;;;0.50;0.10;;;10.50;1.00;;;;;;6137639;23;20438;-80
2022/11/23 10:23:52;;;;;;;0.80;0.30;;;10.50;1.00;;;;;;6137465;23;20464;-79
2022/11/23 10:26:25;;;;;;;0.50;0.10;;;10.60;1.00;;;;;;6139249;23;20514;-79
2022/11/23 10:28:54;;;;;;;0.50;0.10;;;10.70;1.00;;;;;;6138395;23;20425;-81
2022/11/23 10:31:24;;;;;;;0.60;0.10;;;10.90;1.00;;;;;;6140685;23;20478;-79
2022/11/23 10:34:01;;;;;;;0.57;0.10;;;10.90;1.00;;;;;;6137157;23;20950;-78
2022/11/23 10:36:28;;;;;;;0.50;0.10;;;11.00;1.00;;;;;;6138554;23;21051;-81
2022/11/23 10:38:59;;;;;;;0.50;0.10;;;11.10;1.00;;;;;;6137077;23;20483;-80
2022/11/23 10:41:30;;;;;;;0.70;0.57;;;11.20;1.00;;;;;;6146004;23;20438;-78
2022/11/23 10:44:04;;;;;;;0.50;0.10;;;11.30;1.00;;;;;;6148253;23;20441;-76
2022/11/23 10:46:38;;;;;;;0.60;0.10;;;11.20;1.00;;;;;;6147043;23;20455;-78
2022/11/23 10:49:19;;;;;;;0.50;0.10;;;11.20;1.00;;;;;;6140141;23;20397;-80
2022/11/23 10:51:55;;;;;;;0.50;0.10;;;11.10;1.00;;;;;;6137165;23;20440;-78
2022/11/23 10:54:30;;;;;;;0.50;0.10;;;11.10;1.00;;;;;;6137902;23;20485;-77
2022/11/23 10:57:01;;;;;;;0.90;0.77;;;11.10;1.00;;;;;;6137511;23;20716;-80
2022/11/23 10:59:35;;;;;;;0.50;0.10;;;11.00;1.00;;;;;;6137741;23;20432;-80
2022/11/23 11:02:17;;;;;;;0.53;0.10;;;10.90;1.00;;;;;;6137828;23;20443;-80
2022/11/23 11:04:48;;;;;;;0.60;0.10;;;11.00;1.00;;;;;;6139916;23;20478;-81
2022/11/23 11:07:22;;;;;;;0.60;0.10;;;11.10;1.00;;;;;;6140349;23;20396;-80
2022/11/23 11:09:56;;;;;;;0.60;0.10;;;11.30;1.00;;;;;;6140378;23;20445;-80
2022/11/23 11:12:24;;;;;;;0.60;0.10;;;11.30;1.00;;;;;;6138777;23;20448;-78
2022/11/23 11:15:01;;;;;;;0.60;0.10;;;11.40;1.00;;;;;;6136934;23;20414;-79
2022/11/23 11:17:38;;;;;;;0.60;0.10;;;11.50;1.00;;;;;;6135847;23;20409;-79
2022/11/23 11:20:31;;;;;;;0.60;0.10;;;11.50;1.00;;;;;;6140069;23;20418;-80
2022/11/23 11:23:01;;;;;;;0.60;0.10;;;11.50;1.00;;;;;;6145100;23;20416;-78
2022/11/23 11:25:32;;;;;;;0.70;0.30;;;11.40;1.00;;;;;;6147865;23;20442;-79
2022/11/23 11:28:02;;;;;;;0.60;0.10;;;11.60;1.00;;;;;;6147743;23;20484;-79
2022/11/23 11:30:43;;;;;;;0.60;0.30;;;11.50;1.00;;;;;;6145074;23;20414;-78
2022/11/23 11:33:17;;;;;;;0.60;0.10;;;11.50;1.00;;;;;;6138066;23;20409;-79
2022/11/23 11:35:50;;;;;;;0.60;0.10;;;11.60;1.00;;;;;;6139399;23;20393;-78
2022/11/23 11:38:26;;;;;;;0.50;0.10;;;11.60;1.00;;;;;;6140026;23;20390;-77
2022/11/23 11:40:55;;;;;;;0.60;0.10;;;11.80;1.00;;;;;;6140855;23;20492;-79
2022/11/23 11:43:29;;;;;;;0.60;0.20;;;11.80;1.00;;;;;;6137734;23;20405;-80
2022/11/23 11:46:13;;;;;;;0.60;0.10;;;11.70;1.00;;;;;;6138372;23;20433;-79
2022/11/23 11:49:03;;;;;;;0.60;0.10;;;11.70;1.00;;;;;;6145255;23;20472;-79
2022/11/23 11:51:38;;;;;;;0.60;0.10;;;11.80;1.00;;;;;;6149301;23;20477;-79
2022/11/23 11:54:17;;;;;;;0.60;0.10;;;11.90;1.00;;;;;;6150529;23;20436;-79
2022/11/23 11:56:49;;;;;;;0.60;0.10;;;12.00;1.00;;;;;;6149613;23;20430;-80
2022/11/23 11:59:24;;;;;;;0.60;0.10;;;11.90;1.00;;;;;;6148672;23;20420;-80
2022/11/23 12:01:58;;;;;;;0.60;0.10;;;12.00;1.00;;;;;;6142506;23;20442;-82
2022/11/23 12:04:31;;;;;;;0.60;0.10;;;12.00;1.00;;;;;;6144393;23;20430;-80
2022/11/23 12:07:08;;;;;;;0.60;0.10;;;12.70;1.00;;;;;;6136448;23;20425;-81
2022/11/23 12:09:44;;;;;;;0.60;0.10;;;12.10;1.00;;;;;;6136631;23;20417;-80
2022/11/23 12:12:15;;;;;;;1.07;1.07;;;12.20;1.00;;;;;;6147967;23;20421;-80
2022/11/23 12:14:45;;;;;;;0.60;0.10;;;12.20;1.00;;;;;;6151882;23;20402;-80
2022/11/23 12:17:33;;;;;;;0.60;0.10;;;12.30;1.00;;;;;;6148216;23;20421;-81
2022/11/23 12:20:12;;;;;;;0.60;0.10;;;12.30;1.00;;;;;;6139767;23;20417;-81
2022/11/23 12:22:55;;;;;;;0.60;0.10;;;12.30;1.00;;;;;;6134486;23;20817;-81
2022/11/23 12:25:32;;;;;;;0.60;0.10;;;12.30;1.00;;;;;;6136665;23;20421;-81
2022/11/23 12:28:18;;;;;;;0.60;0.10;;;12.30;1.00;;;;;;6134497;23;20427;-81
2022/11/23 12:30:57;;;;;;;0.60;0.10;;;12.40;1.00;;;;;;6135032;23;20405;-81
2022/11/23 12:33:49;;;;;;;0.60;0.10;;;12.40;1.00;;;;;;6133415;23;20417;-84
2022/11/23 12:36:36;;;;;;;0.60;0.10;;;12.30;1.00;;;;;;6134518;23;20437;-81
2022/11/23 12:39:17;;;;;;;0.60;0.10;;;12.40;1.00;;;;;;6133173;23;20485;-80
2022/11/23 12:41:51;;;;;;;0.60;0.10;;;12.40;1.00;;;;;;6134741;23;20425;-80
2022/11/23 12:44:45;;;;;;;0.83;0.83;;;12.40;1.00;;;;;;6149605;23;20413;-80
2022/11/23 12:47:28;;;;;;;0.60;0.10;;;12.40;1.00;;;;;;6149875;23;20412;-80
2022/11/23 12:50:05;;;;;;;0.70;0.47;;;12.40;1.00;;;;;;6146411;23;20398;-80
2022/11/23 12:52:49;;;;;;;0.60;0.10;;;12.40;1.00;;;;;;6137461;23;20421;-82
2022/11/23 12:55:24;;;;;;;0.60;0.10;;;12.40;1.00;;;;;;6134988;23;20424;-81
2022/11/23 12:57:59;;;;;;;0.60;0.10;;;12.40;1.00;;;;;;6135746;23;20424;-79
2022/11/23 13:00:31;;;;;;;0.60;0.20;;;12.40;1.00;;;;;;6133963;23;20413;-79
2022/11/23 13:03:28;;;;;;;0.60;0.10;;;12.70;1.00;;;;;;6135186;23;20465;-81
2022/11/23 13:06:21;;;;;;;0.60;0.10;;;12.40;1.00;;;;;;6135802;23;20774;-80
2022/11/23 13:09:21;;;;;;;0.60;0.10;;;12.30;1.00;;;;;;6140071;23;20471;-81
2022/11/23 13:12:09;;;;;;;0.60;0.10;;;12.40;1.00;;;;;;6130324;23;20465;-81
2022/11/23 13:14:49;;;;;;;0.60;0.10;;;12.40;1.00;;;;;;6136487;23;20413;-81
2022/11/23 13:17:29;;;;;;;0.60;0.10;;;12.50;1.00;;;;;;6137938;23;20393;-80
2022/11/23 13:20:27;;;;;;;0.60;0.10;;;12.40;1.00;;;;;;6138614;23;20413;-81
2022/11/23 13:22:57;;;;;;;0.83;0.30;;;12.50;1.00;;;;;;6135190;23;20438;-79
2022/11/23 13:25:27;;;;;;;0.60;0.20;;;12.40;1.00;;;;;;6142350;23;20517;-79
2022/11/23 13:28:01;;;;;;;0.60;0.13;;;12.40;1.00;;;;;;6139018;23;20394;-79
2022/11/23 13:30:35;;;;;;;0.60;0.10;;;12.50;1.00;;;;;;6136025;23;20412;-80
2022/11/23 13:33:38;;;;;;;0.60;0.10;;;12.50;1.00;;;;;;6136690;23;20409;-78
2022/11/23 13:36:10;;;;;;;0.60;0.10;;;12.50;1.00;;;;;;6136963;23;20413;-82
2022/11/23 13:38:46;;;;;;;0.60;0.10;;;12.60;1.00;;;;;;6136873;23;20417;-81
2022/11/23 13:41:56;;;;;;;0.60;0.20;;;12.60;1.00;;;;;;6135156;23;20489;-82
2022/11/23 13:44:30;;;;;;;2.17;2.07;;;12.60;1.00;;;;;;6136538;23;20480;-81
2022/11/23 13:47:04;;;;;;;0.60;0.10;;;12.50;1.00;;;;;;6137324;23;20536;-81
2022/11/23 13:49:37;;;;;;;0.60;0.10;;;12.50;1.00;;;;;;6138283;23;20394;-82
2022/11/23 13:52:31;;;;;;;0.60;0.10;;;12.50;1.00;;;;;;6136043;23;20489;-81
2022/11/23 13:55:19;;;;;;;0.60;0.10;;;12.40;1.00;;;;;;6107789;23;20414;-82
2022/11/23 13:58:25;;;;;;;0.60;0.10;;;12.40;1.00;;;;;;6135481;23;20401;-81
2022/11/23 14:00:56;;;;;;;0.60;0.10;;;12.40;1.00;;;;;;6137943;23;20451;-80
2022/11/23 14:03:48;;;;;;;0.60;0.10;;;12.40;1.00;;;;;;6138136;23;20402;-81
2022/11/23 14:06:37;;;;;;;0.60;0.10;;;12.50;1.00;;;;;;6136812;23;20532;-80
2022/11/23 14:09:16;;;;;;;0.60;0.13;;;12.50;1.00;;;;;;6137786;23;20390;-81
2022/11/23 14:11:55;;;;;;;0.60;0.10;;;12.50;1.00;;;;;;6136596;23;20432;-78
2022/11/23 14:14:28;;;;;;;0.60;0.10;;;12.50;1.00;;;;;;6136875;23;20461;-82
2022/11/23 14:17:06;;;;;;;0.60;0.10;;;;;;;;;;6137386;23;20913;-80
2022/11/23 14:19:50;;;;;;;0.60;0.10;;;12.50;1.00;;;;;;6137752;23;20418;-79
2022/11/23 14:22:28;;;;;;;0.60;0.10;;;12.40;1.00;;;;;;6135502;23;20988;-79
2022/11/23 14:25:15;;;;;;;0.60;0.10;;;12.40;1.00;;;;;;6134761;23;20512;-80
2022/11/23 14:27:53;;;;;;;0.60;0.10;;;12.30;1.00;;;;;;6135000;23;20370;-80
2022/11/23 14:30:38;;;;;;;0.60;0.20;;;12.10;1.00;;;;;;6136455;23;20409;-80
2022/11/23 14:33:24;;;;;;;0.60;0.20;;;;;;;;;;6137363;23;20442;-79
2022/11/23 14:36:03;;;;;;;0.87;0.63;;;12.00;1.00;;;;;;6137289;23;20736;-82
2022/11/23 14:38:56;;;;;;;0.60;0.10;;;12.00;1.00;;;;;;6136822;23;20465;-78
2022/11/23 14:41:59;;;;;;;0.60;0.10;;;12.00;1.00;;;;;;6143424;23;20430;-79
2022/11/23 14:44:49;;;;;;;0.60;0.10;;;;;;;;;;6145127;23;20414;-79
2022/11/23 14:47:26;;;;;;;0.60;0.10;;;;;;;;;;6139024;23;20454;-80
2022/11/23 14:49:56;;;;;;;0.60;0.20;;;11.90;1.00;;;;;;6143425;23;20417;-78
2022/11/23 14:52:27;;;;;;;0.60;0.10;;;11.90;1.00;;;;;;6150458;23;20426;-78
2022/11/23 14:54:58;;;;;;;0.60;0.10;;;11.80;1.00;;;;;;6144741;23;20383;-80
2022/11/23 14:57:29;;;;;;;0.60;0.10;;;11.70;1.00;;;;;;6138728;23;20775;-78
2022/11/23 15:00:01;;;;;;;0.60;0.10;;;11.70;1.00;;;;;;6136960;23;20425;-80
2022/11/23 15:02:39;;;;;;;0.60;0.10;;;11.60;1.00;;;;;;6138522;23;20536;-80
2022/11/23 15:05:17;;;;;;;0.60;0.20;;;11.50;1.00;;;;;;6136088;23;20403;-79
2022/11/23 15:07:51;;;;;;;1.50;1.40;;;11.40;1.00;;;;;;6135387;23;20500;-79
2022/11/23 15:10:28;;;;;;;0.60;0.10;;;11.40;1.00;;;;;;6136104;23;20930;-81
2022/11/23 15:12:56;;;;;;;0.60;0.60;;;11.20;1.00;;;;;;6134600;23;20732;-81
2022/11/23 15:15:26;;;;;;;0.60;0.10;;;11.20;1.00;;;;;;6135806;23;20469;-79
2022/11/23 15:17:55;;;;;;;0.60;0.10;;;11.10;1.00;;;;;;6135949;23;20907;-80
2022/11/23 15:20:31;;;;;;;0.60;0.10;;;11.10;1.00;;;;;;6134811;23;20418;-80
2022/11/23 15:23:00;;;;;;;0.60;0.10;;;11.10;1.00;;;;;;6135125;23;20484;-78
2022/11/23 15:25:29;;;;;;;0.60;0.10;;;11.10;1.00;;;;;;6133329;23;20446;-79
2022/11/23 15:27:56;;;;;;;0.60;0.10;;;11.00;1.00;;;;;;6134096;23;20442;-81
2022/11/23 15:30:28;;;;;;;0.60;0.10;;;10.90;1.00;;;;;;6132595;23;20418;-80
2022/11/23 15:32:58;;;;;;;0.60;0.10;;;10.90;1.00;;;;;;6132225;23;20478;-80
2022/11/23 15:35:32;;;;;;;0.60;0.10;;;10.80;1.00;;;;;;6133217;23;20445;-82
2022/11/23 15:38:01;;;;;;;0.60;0.10;;;10.80;1.00;;;;;;6133637;23;20413;-79
2022/11/23 15:40:33;;;;;;;0.60;0.10;;;10.70;1.00;;;;;;6134435;23;20432;-81
2022/11/23 15:43:01;;;;;;;0.60;0.10;;;10.70;1.00;;;;;;6133440;23;20414;-80
2022/11/23 15:45:38;;;;;;;0.60;0.10;;;10.70;1.00;;;;;;6133464;23;20406;-80
2022/11/23 15:48:12;;;;;;;0.60;0.10;;;10.60;1.00;;;;;;6132607;23;20469;-82
2022/11/23 15:50:52;;;;;;;0.50;0.10;;;10.60;1.00;;;;;;6136217;23;20410;-81
2022/11/23 15:53:24;;;;;;;0.60;0.13;;;10.60;1.00;;;;;;6135928;23;20452;-81
2022/11/23 15:55:53;;;;;;;0.60;0.10;;;10.50;1.00;;;;;;6134555;23;20994;-81
2022/11/23 15:58:21;;;;;;;0.60;0.10;;;10.40;1.00;;;;;;6133966;23;20414;-81
2022/11/23 16:00:53;;;;;;;0.60;0.20;;;10.40;1.00;;;;;;6135054;23;20409;-81
2022/11/23 16:03:28;;;;;;;0.60;0.10;;;10.40;1.00;;;;;;6133926;23;20496;-75
2022/11/23 16:06:24;;;;;;;0.60;0.10;;;10.30;1.00;;;;;;6155861;23;20403;-76
2022/11/23 16:08:52;;;;;;;0.60;0.10;;;10.30;1.00;;;;;;6154227;23;20411;-75
2022/11/23 16:11:29;;;;;;;0.60;0.10;;;10.30;1.00;;;;;;6155002;23;20389;-76
2022/11/23 16:14:15;;;;;;;0.50;0.10;;;10.20;1.00;;;;;;6150695;23;20448;-74
2022/11/23 16:16:45;;;;;;;0.53;0.10;;;10.20;1.00;;;;;;6153856;23;20392;-76
2022/11/23 16:19:22;;;;;;;0.60;0.10;;;10.20;1.00;;;;;;6155152;23;20408;-75
2022/11/23 16:21:55;;;;;;;0.50;0.10;;;10.20;1.00;;;;;;6155206;23;20845;-76
2022/11/23 16:24:30;;;;;;;0.50;0.10;;;10.20;1.00;;;;;;6157909;23;20460;-75
2022/11/23 16:26:59;;;;;;;0.50;0.10;;;10.10;1.00;;;;;;6156366;23;20441;-76
2022/11/23 16:29:32;;;;;;;0.53;0.10;;;10.10;1.00;;;;;;6154424;23;20415;-77
2022/11/23 16:32:02;;;;;;;0.50;0.10;;;10.00;1.00;;;;;;6155335;23;20385;-71
2022/11/23 16:34:30;;;;;;;0.53;0.10;;;10.00;1.00;;;;;;6155849;23;20425;-75
2022/11/23 16:37:03;;;;;;;0.50;0.10;;;10.00;1.00;;;;;;6150768;23;20475;-75
2022/11/23 16:39:32;;;;;;;0.50;0.10;;;10.10;1.00;;;;;;6156231;23;20744;-75
2022/11/23 16:42:00;;;;;;;0.50;0.10;;;10.10;1.00;;;;;;6154879;23;20409;-76
2022/11/23 16:44:29;;;;;;;0.50;0.10;;;10.10;1.00;;;;;;6155257;23;20523;-75
2022/11/23 16:47:24;;;;;;;0.50;0.10;;;10.10;1.00;;;;;;6156182;23;20745;-76
2022/11/23 16:49:53;;;;;;;0.50;0.10;;;10.10;1.00;;;;;;6155102;23;20412;-77
2022/11/23 16:52:23;;;;;;;0.50;0.10;;;10.10;1.00;;;;;;6155727;23;20421;-75
2022/11/23 16:54:52;;;;;;;0.50;0.10;;;10.10;1.00;;;;;;6153620;23;20945;-77
2022/11/23 16:57:27;;;;;;;0.57;0.10;;;10.10;1.00;;;;;;6153404;23;20412;-75
2022/11/23 16:59:56;;;;;;;0.60;0.20;;;10.20;1.00;;;;;;6151465;23;20987;-74
2022/11/23 17:02:24;;;;;;;0.50;0.10;;;10.10;1.00;;;;;;6152084;23;20934;-76
2022/11/23 17:04:51;;;;;;;0.50;0.10;;;10.10;1.00;;;;;;6152381;23;20945;-76
2022/11/23 17:07:20;;;;;;;0.50;0.10;;;10.10;1.00;;;;;;6153471;23;20480;-75
2022/11/23 17:09:49;;;;;;;0.50;0.10;;;10.10;1.00;;;;;;6154601;23;20479;-75
2022/11/23 17:12:19;;;;;;;11.23;10.83;;;10.10;1.00;;;;;;6155368;23;21037;-77
2022/11/23 17:14:49;;;;;;;0.50;0.10;;;10.10;1.00;;;;;;6155934;23;20512;-76
2022/11/23 17:17:20;;;;;;;0.50;0.10;;;10.20;1.00;;;;;;6159387;23;20407;-77
2022/11/23 17:19:50;;;;;;;0.53;0.20;;;;;;;;;;6154949;23;20415;-76
2022/11/23 17:22:19;;;;;;;0.50;0.10;;;10.20;1.00;;;;;;6153409;23;20504;-77
2022/11/23 17:24:51;;;;;;;0.50;0.10;;;10.20;1.00;;;;;;6153091;23;20432;-75
2022/11/23 17:27:22;;;;;;;0.50;0.10;;;10.20;1.00;;;;;;6152249;23;20995;-76